createdAt,value
2023-09-08T00:02:13.318Z,10.63
2023-09-08T00:04:39.927Z,10.60
2023-09-08T00:07:06.431Z,10.65
2023-09-08T00:09:32.943Z,10.82
2023-09-08T00:11:59.946Z,10.77
2023-09-08T00:14:26.480Z,10.47
2023-09-08T00:16:55.767Z,10.23
2023-09-08T00:19:24.268Z,10.30
2023-09-08T00:21:51.132Z,10.50
2023-09-08T00:24:18.869Z,10.40
2023-09-08T00:26:45.382Z,10.90
2023-09-08T00:29:11.950Z,10.63
2023-09-08T00:31:38.421Z,10.50
2023-09-08T00:34:05.035Z,9.88
2023-09-08T00:36:31.635Z,10.43
2023-09-08T00:38:58.099Z,10.80
2023-09-08T00:41:24.832Z,10.40
2023-09-08T00:43:51.506Z,10.55
2023-09-08T00:46:19.020Z,10.50
2023-09-08T00:48:45.637Z,10.07
2023-09-08T00:51:12.190Z,10.50
2023-09-08T00:53:38.777Z,10.60
2023-09-08T00:56:05.505Z,9.65
2023-09-08T00:58:32.458Z,10.48
2023-09-08T01:00:59.243Z,9.93
2023-09-08T01:03:26.456Z,10.30
2023-09-08T01:05:53.757Z,10.20
2023-09-08T01:08:20.967Z,10.32
2023-09-08T01:10:47.600Z,10.13
2023-09-08T01:13:14.079Z,10.30
2023-09-08T01:15:40.653Z,10.63
2023-09-08T01:18:07.370Z,10.23
2023-09-08T01:20:57.159Z,10.50
2023-09-08T01:23:45.031Z,9.70
2023-09-08T01:26:19.112Z,9.93
2023-09-08T01:28:50.105Z,9.60
2023-09-08T01:31:17.815Z,10.00
2023-09-08T01:33:46.509Z,10.13
2023-09-08T01:36:15.219Z,9.77
2023-09-08T01:38:41.756Z,10.32
2023-09-08T01:41:08.190Z,10.03
2023-09-08T01:43:34.715Z,10.48
2023-09-08T01:46:01.226Z,9.95
2023-09-08T01:48:27.787Z,10.30
2023-09-08T01:50:54.234Z,10.15
2023-09-08T01:53:20.672Z,10.00
2023-09-08T01:55:47.082Z,10.32
2023-09-08T01:58:13.489Z,9.70
2023-09-08T02:00:39.978Z,9.73
2023-09-08T02:03:06.442Z,9.90
2023-09-08T02:05:33.069Z,9.30
2023-09-08T02:07:59.638Z,9.63
2023-09-08T02:10:26.114Z,9.73
2023-09-08T02:12:53.377Z,9.77
2023-09-08T02:15:19.966Z,9.23
2023-09-08T02:17:46.511Z,10.33
2023-09-08T02:20:13.081Z,9.48
2023-09-08T02:22:39.519Z,9.95
2023-09-08T02:25:06.507Z,10.00
2023-09-08T02:27:33.178Z,9.60
2023-09-08T02:29:59.609Z,9.43
2023-09-08T02:32:26.040Z,9.55
2023-09-08T02:34:53.869Z,9.35
2023-09-08T02:37:20.412Z,9.60
2023-09-08T02:39:46.929Z,9.48
2023-09-08T02:42:13.398Z,9.73
2023-09-08T02:44:39.858Z,9.85
2023-09-08T02:47:07.564Z,9.50
2023-09-08T02:49:34.074Z,9.32
2023-09-08T02:52:00.581Z,9.35
2023-09-08T02:54:27.061Z,9.37
2023-09-08T02:56:53.524Z,9.60
2023-09-08T02:59:20.075Z,8.93
2023-09-08T03:01:46.829Z,9.32
2023-09-08T03:04:13.366Z,9.48
2023-09-08T03:06:39.783Z,9.60
2023-09-08T03:09:06.247Z,9.27
2023-09-08T03:11:32.722Z,9.63
2023-09-08T03:13:59.311Z,10.02
2023-09-08T03:16:25.844Z,9.75
2023-09-08T03:18:52.407Z,9.83
2023-09-08T03:21:18.820Z,9.95
2023-09-08T03:23:46.677Z,9.43
2023-09-08T03:26:13.199Z,9.85
2023-09-08T03:28:40.132Z,10.00
2023-09-08T03:31:07.231Z,9.93
2023-09-08T03:33:34.105Z,9.27
2023-09-08T03:36:01.067Z,9.52
2023-09-08T03:38:27.594Z,9.30
2023-09-08T03:40:54.152Z,9.75
2023-09-08T03:43:20.653Z,9.67
2023-09-08T03:45:48.327Z,9.32
2023-09-08T03:48:15.126Z,9.43
2023-09-08T03:50:41.696Z,9.55
2023-09-08T03:53:08.203Z,9.50
2023-09-08T03:55:34.648Z,9.63
2023-09-08T03:58:01.090Z,9.48
2023-09-08T04:00:27.574Z,9.88
2023-09-08T04:02:54.110Z,9.35
2023-09-08T04:05:20.880Z,9.32
2023-09-08T04:07:47.926Z,9.63
2023-09-08T04:10:14.701Z,9.48
2023-09-08T04:12:42.094Z,9.10
2023-09-08T04:15:09.721Z,9.10
2023-09-08T04:17:37.240Z,9.50
2023-09-08T04:20:08.019Z,9.90
2023-09-08T04:22:34.950Z,9.57
2023-09-08T04:25:01.943Z,10.20
2023-09-08T04:27:28.514Z,10.35
2023-09-08T04:29:55.055Z,10.43
2023-09-08T04:32:21.553Z,10.57
2023-09-08T04:34:48.132Z,9.95
2023-09-08T04:37:15.269Z,10.15
2023-09-08T04:39:41.766Z,10.68
2023-09-08T04:42:08.316Z,10.45
2023-09-08T04:44:34.969Z,11.30
2023-09-08T04:47:01.931Z,11.68
2023-09-08T04:49:30.034Z,11.40
2023-09-08T04:51:56.686Z,11.32
2023-09-08T04:54:25.402Z,11.52
2023-09-08T04:56:51.990Z,12.10
2023-09-08T04:59:18.542Z,11.35
2023-09-08T05:01:45.013Z,11.60
2023-09-08T05:04:12.357Z,11.90
2023-09-08T05:06:38.974Z,11.68
2023-09-08T05:09:05.452Z,11.43
2023-09-08T05:11:32.087Z,11.90
2023-09-08T05:13:59.078Z,11.57
2023-09-08T05:16:40.705Z,11.30
2023-09-08T05:19:07.344Z,11.30
2023-09-08T05:21:35.238Z,11.37
2023-09-08T05:24:01.807Z,11.35
2023-09-08T05:26:28.313Z,11.00
2023-09-08T05:28:54.865Z,11.00
2023-09-08T05:31:21.787Z,10.70
2023-09-08T05:33:48.437Z,9.90
2023-09-08T05:36:16.112Z,10.32
2023-09-08T05:38:42.786Z,10.07
2023-09-08T05:41:09.287Z,10.13
2023-09-08T05:43:36.148Z,10.13
2023-09-08T05:46:02.986Z,10.67
2023-09-08T05:48:29.505Z,10.65
2023-09-08T05:50:56.054Z,11.30
2023-09-08T05:53:22.800Z,9.73
2023-09-08T05:55:49.350Z,10.05
2023-09-08T05:58:15.956Z,9.73
2023-09-08T06:00:42.626Z,9.38
2023-09-08T06:03:09.466Z,9.02
2023-09-08T06:05:36.204Z,9.48
2023-09-08T06:08:07.842Z,10.25
2023-09-08T06:10:34.858Z,9.50
2023-09-08T06:13:02.644Z,9.63
2023-09-08T06:15:29.206Z,9.70
2023-09-08T06:17:55.818Z,9.38
2023-09-08T06:20:22.619Z,9.60
2023-09-08T06:22:49.685Z,9.17
2023-09-08T06:25:16.497Z,9.65
2023-09-08T06:27:43.100Z,9.15
2023-09-08T06:30:10.080Z,9.48
2023-09-08T06:32:36.572Z,8.57
2023-09-08T06:35:03.076Z,7.90
2023-09-08T06:37:30.136Z,9.25
2023-09-08T06:39:56.602Z,8.50
2023-09-08T06:42:23.083Z,8.15
2023-09-08T06:44:49.538Z,8.95
2023-09-08T06:47:16.889Z,9.90
2023-09-08T06:49:43.418Z,9.18
2023-09-08T06:52:09.922Z,9.82
2023-09-08T06:54:36.364Z,8.70
2023-09-08T06:57:02.974Z,9.30
2023-09-08T06:59:29.414Z,9.37
2023-09-08T07:01:56.077Z,8.95
2023-09-08T07:04:22.884Z,7.75
2023-09-08T07:06:51.100Z,8.82
2023-09-08T07:09:18.201Z,8.18
2023-09-08T07:11:44.627Z,8.50
2023-09-08T07:14:11.071Z,7.75
2023-09-08T07:16:37.651Z,8.40
2023-09-08T07:19:05.042Z,8.32
2023-09-08T07:21:31.693Z,7.90
2023-09-08T07:23:59.324Z,8.33
2023-09-08T07:26:25.798Z,7.93
2023-09-08T07:28:52.284Z,8.52
2023-09-08T07:31:19.061Z,7.35
2023-09-08T07:33:45.586Z,8.57
2023-09-08T07:36:12.780Z,7.80
2023-09-08T07:38:39.251Z,8.10
2023-09-08T07:41:06.723Z,7.40
2023-09-08T07:43:33.428Z,6.93
2023-09-08T07:46:00.017Z,7.80
2023-09-08T07:48:26.622Z,8.60
2023-09-08T07:50:53.336Z,8.38
2023-09-08T07:53:19.830Z,8.23
2023-09-08T07:55:46.278Z,8.63
2023-09-08T07:58:12.712Z,8.68
2023-09-08T08:00:39.158Z,8.23
2023-09-08T08:03:07.203Z,7.90
2023-09-08T08:05:33.833Z,8.70
2023-09-08T08:08:00.441Z,9.00
2023-09-08T08:10:27.012Z,7.00
2023-09-08T08:12:53.794Z,8.33
2023-09-08T08:15:24.472Z,8.05
2023-09-08T08:17:51.046Z,8.05
2023-09-08T08:20:20.646Z,8.30
2023-09-08T08:22:47.691Z,7.95
2023-09-08T08:25:14.330Z,8.13
2023-09-08T08:27:41.543Z,7.70
2023-09-08T08:30:08.520Z,7.53
2023-09-08T08:32:35.084Z,8.00
2023-09-08T08:35:01.548Z,7.30
2023-09-08T08:37:28.204Z,7.50
2023-09-08T08:39:54.650Z,7.50
2023-09-08T08:42:23.408Z,7.45
2023-09-08T08:44:51.154Z,7.40
2023-09-08T08:47:18.340Z,7.35
2023-09-08T08:49:47.785Z,7.30
2023-09-08T08:52:16.242Z,7.30
2023-09-08T08:54:43.939Z,7.22
2023-09-08T08:57:12.237Z,7.45
2023-09-08T08:59:38.827Z,7.50
2023-09-08T09:02:06.203Z,7.27
2023-09-08T09:04:33.418Z,6.68
2023-09-08T09:07:00.721Z,7.10
2023-09-08T09:09:27.301Z,7.22
2023-09-08T09:11:53.858Z,6.82
2023-09-08T09:14:20.665Z,7.23
2023-09-08T09:16:48.884Z,6.65
2023-09-08T09:19:26.471Z,6.95
2023-09-08T09:21:55.619Z,6.90
2023-09-08T09:24:34.045Z,6.75
2023-09-08T09:27:06.752Z,6.70
2023-09-08T09:29:35.369Z,7.10
2023-09-08T09:32:09.614Z,6.70
2023-09-08T09:34:36.218Z,6.97
2023-09-08T09:37:06.204Z,7.05
2023-09-08T09:39:33.156Z,7.10
2023-09-08T09:41:59.639Z,6.82
2023-09-08T09:44:26.763Z,6.82
2023-09-08T09:46:54.204Z,6.80
2023-09-08T09:49:21.416Z,7.95
2023-09-08T09:51:50.373Z,7.00
2023-09-08T09:54:17.561Z,6.80
2023-09-08T09:56:46.918Z,6.43
2023-09-08T09:59:14.678Z,6.50
2023-09-08T10:01:43.406Z,6.43
2023-09-08T10:04:10.697Z,6.80
2023-09-08T10:06:39.160Z,6.65
2023-09-08T10:09:14.332Z,6.82
2023-09-08T10:11:50.637Z,6.28
2023-09-08T10:14:19.231Z,6.30
2023-09-08T10:16:50.613Z,6.00
2023-09-08T10:19:18.146Z,6.70
2023-09-08T10:21:48.262Z,6.28
2023-09-08T10:24:35.046Z,6.03
2023-09-08T10:27:12.246Z,6.28
2023-09-08T10:29:39.779Z,6.40
2023-09-08T10:32:09.008Z,6.00
2023-09-08T10:34:37.195Z,5.78
2023-09-08T10:37:06.565Z,5.80
2023-09-08T10:39:39.957Z,5.90
2023-09-08T10:42:19.594Z,5.93
2023-09-08T10:44:48.865Z,5.25
2023-09-08T10:47:19.100Z,5.22
2023-09-08T10:49:46.569Z,5.40
2023-09-08T10:52:13.977Z,5.70
2023-09-08T10:54:44.524Z,5.27
2023-09-08T10:57:15.808Z,5.47
2023-09-08T11:00:00.867Z,5.30
2023-09-08T11:02:49.104Z,5.50
2023-09-08T11:05:16.875Z,5.40
2023-09-08T11:07:47.152Z,6.50
2023-09-08T11:10:14.252Z,5.90
2023-09-08T11:12:41.029Z,5.90
2023-09-08T11:15:09.732Z,5.85
2023-09-08T11:17:41.001Z,5.80
2023-09-08T11:20:10.086Z,5.27
2023-09-08T11:22:37.699Z,5.85
2023-09-08T11:25:07.902Z,5.50
2023-09-08T11:27:34.646Z,5.93
2023-09-08T11:30:01.442Z,6.13
2023-09-08T11:32:35.214Z,5.80
2023-09-08T11:35:08.026Z,5.85
2023-09-08T11:37:38.543Z,5.78
2023-09-08T11:40:10.465Z,6.20
2023-09-08T11:42:37.053Z,5.80
2023-09-08T11:45:05.200Z,5.20
2023-09-08T11:47:32.962Z,5.35
2023-09-08T11:49:59.798Z,5.78
2023-09-08T11:52:26.319Z,5.85
2023-09-08T11:55:06.493Z,6.00
2023-09-08T11:57:34.650Z,6.17
2023-09-08T12:00:02.871Z,6.45
2023-09-08T12:02:29.516Z,6.53
2023-09-08T12:04:56.196Z,6.78
2023-09-08T12:07:22.626Z,6.85
2023-09-08T12:09:49.208Z,6.27
2023-09-08T12:12:15.665Z,6.55
2023-09-08T12:14:45.266Z,7.03
2023-09-08T12:17:18.005Z,6.90
2023-09-08T12:19:44.763Z,6.70
2023-09-08T12:22:18.743Z,6.97
2023-09-08T12:24:52.342Z,6.70
2023-09-08T12:27:20.584Z,6.22
2023-09-08T12:29:53.464Z,6.18
2023-09-08T12:32:20.026Z,6.55
2023-09-08T12:34:46.758Z,7.07
2023-09-08T12:37:13.238Z,6.35
2023-09-08T12:39:40.385Z,6.22
2023-09-08T12:42:06.850Z,6.40
2023-09-08T12:44:33.897Z,6.68
2023-09-08T12:47:00.400Z,6.10
2023-09-08T12:49:26.904Z,6.45
2023-09-08T12:51:53.349Z,6.20
2023-09-08T12:54:19.768Z,6.00
2023-09-08T12:56:46.219Z,6.93
2023-09-08T12:59:12.679Z,6.10
2023-09-08T13:01:39.154Z,5.97
2023-09-08T13:04:05.983Z,6.30
2023-09-08T13:06:33.909Z,6.00
2023-09-08T13:09:00.359Z,6.20
2023-09-08T13:11:26.919Z,6.10
2023-09-08T13:13:55.103Z,6.32
2023-09-08T13:16:21.710Z,6.20
2023-09-08T13:18:48.580Z,6.15
2023-09-08T13:21:15.075Z,6.97
2023-09-08T13:23:41.500Z,6.67
2023-09-08T13:26:07.954Z,6.45
2023-09-08T13:28:34.619Z,6.88
2023-09-08T13:31:01.386Z,6.63
2023-09-08T13:33:27.892Z,6.22
2023-09-08T13:35:54.319Z,6.53
2023-09-08T13:38:20.844Z,6.80
2023-09-08T13:40:47.286Z,6.60
2023-09-08T13:43:13.706Z,6.20
2023-09-08T13:45:40.109Z,5.85
2023-09-08T13:48:07.829Z,5.83
2023-09-08T13:50:35.243Z,6.45
2023-09-08T13:53:04.646Z,6.85
2023-09-08T13:55:37.676Z,6.80
2023-09-08T13:58:08.867Z,6.50
2023-09-08T14:00:38.582Z,6.37
2023-09-08T14:03:06.780Z,6.45
2023-09-08T14:05:37.005Z,5.95
2023-09-08T14:08:09.393Z,5.47
2023-09-08T14:10:52.165Z,5.63
2023-09-08T14:13:24.690Z,5.70
2023-09-08T14:15:51.349Z,5.93
2023-09-08T14:18:17.770Z,5.30
2023-09-08T14:20:44.440Z,5.45
2023-09-08T14:23:10.969Z,5.40
2023-09-08T14:25:37.413Z,5.23
2023-09-08T14:28:05.567Z,5.35
2023-09-08T14:30:33.506Z,5.43
2023-09-08T14:33:00.008Z,5.22
2023-09-08T14:35:26.919Z,5.68
2023-09-08T14:37:53.391Z,5.57
2023-09-08T14:40:19.845Z,5.60
2023-09-08T14:42:46.269Z,4.65
2023-09-08T14:45:13.404Z,5.30
2023-09-08T14:47:39.983Z,5.70
2023-09-08T14:50:07.168Z,5.83
2023-09-08T14:52:33.599Z,6.00
2023-09-08T14:55:00.932Z,6.57
2023-09-08T14:57:27.408Z,5.80
2023-09-08T14:59:56.508Z,6.00
2023-09-08T15:02:23.965Z,6.20
2023-09-08T15:04:50.505Z,6.20
2023-09-08T15:07:17.014Z,6.00
2023-09-08T15:09:43.488Z,6.05
2023-09-08T15:12:10.334Z,6.30
2023-09-08T15:14:36.771Z,6.87
2023-09-08T15:17:04.099Z,6.40
2023-09-08T15:19:30.566Z,6.50
2023-09-08T15:21:56.980Z,6.95
2023-09-08T15:24:23.465Z,6.85
2023-09-08T15:26:51.163Z,7.10
2023-09-08T15:29:18.477Z,6.55
2023-09-08T15:31:45.044Z,7.20
2023-09-08T15:34:13.129Z,6.70
2023-09-08T15:36:39.567Z,6.95
2023-09-08T15:39:06.094Z,6.93
2023-09-08T15:41:32.763Z,6.45
2023-09-08T15:43:59.257Z,6.70
2023-09-08T15:46:26.887Z,6.80
2023-09-08T15:48:53.388Z,6.60
2023-09-08T15:51:19.853Z,7.00
2023-09-08T15:53:47.228Z,7.10
2023-09-08T15:56:13.718Z,7.60
2023-09-08T15:58:40.408Z,6.72
2023-09-08T16:01:07.466Z,7.30
2023-09-08T16:03:34.856Z,7.97
2023-09-08T16:06:01.581Z,11.13
2023-09-08T16:08:28.044Z,11.07
2023-09-08T16:10:54.599Z,16.15
2023-09-08T16:13:21.368Z,16.25
2023-09-08T16:15:47.969Z,14.90
2023-09-08T16:18:14.474Z,17.10
2023-09-08T16:20:41.016Z,11.25
2023-09-08T16:23:08.463Z,8.48
2023-09-08T16:25:35.083Z,7.18
2023-09-08T16:28:01.661Z,7.97
2023-09-08T16:30:29.969Z,6.93
2023-09-08T16:32:56.547Z,6.50
2023-09-08T16:35:23.056Z,6.70
2023-09-08T16:37:49.644Z,7.22
2023-09-08T16:40:16.467Z,8.07
2023-09-08T16:42:42.893Z,6.65
2023-09-08T16:45:09.808Z,6.50
2023-09-08T16:47:36.346Z,9.88
2023-09-08T16:50:04.461Z,7.03
2023-09-08T16:52:30.892Z,9.70
2023-09-08T16:54:57.418Z,7.65
2023-09-08T16:57:24.024Z,7.90
2023-09-08T16:59:51.435Z,8.10
2023-09-08T17:02:18.010Z,10.63
2023-09-08T17:04:46.780Z,9.33
2023-09-08T17:07:13.661Z,14.82
2023-09-08T17:09:40.179Z,17.67
2023-09-08T17:12:08.258Z,9.77
2023-09-08T17:14:35.753Z,8.80
2023-09-08T17:17:02.461Z,10.27
2023-09-08T17:19:28.996Z,8.20
2023-09-08T17:21:55.548Z,7.63
2023-09-08T17:24:21.997Z,7.32
2023-09-08T17:26:49.551Z,9.30
2023-09-08T17:29:15.985Z,8.27
2023-09-08T17:31:42.424Z,8.00
2023-09-08T17:34:09.061Z,7.60
2023-09-08T17:36:35.588Z,8.00
2023-09-08T17:39:02.015Z,7.82
2023-09-08T17:41:28.454Z,8.30
2023-09-08T17:43:54.877Z,8.40
2023-09-08T17:46:21.706Z,8.00
2023-09-08T17:48:48.354Z,8.50
2023-09-08T17:51:14.813Z,7.82
2023-09-08T17:53:41.245Z,9.00
2023-09-08T17:56:07.707Z,8.95
2023-09-08T17:58:34.143Z,8.50
2023-09-08T18:01:00.654Z,9.57
2023-09-08T18:03:27.278Z,9.82
2023-09-08T18:05:53.802Z,9.10
2023-09-08T18:08:20.263Z,9.70
2023-09-08T18:10:47.682Z,10.00
2023-09-08T18:13:14.309Z,9.70
2023-09-08T18:15:40.842Z,11.45
2023-09-08T18:18:07.427Z,9.30
2023-09-08T18:20:36.749Z,9.77
2023-09-08T18:23:03.633Z,9.60
2023-09-08T18:25:30.103Z,10.35
2023-09-08T18:27:56.627Z,10.80
2023-09-08T18:30:23.135Z,11.00
2023-09-08T18:32:49.638Z,10.93
2023-09-08T18:35:16.291Z,10.23
2023-09-08T18:37:42.958Z,10.52
2023-09-08T18:40:11.514Z,11.00
2023-09-08T18:42:38.592Z,10.70
2023-09-08T18:45:05.611Z,11.77
2023-09-08T18:47:32.162Z,11.68
2023-09-08T18:49:58.611Z,11.40
2023-09-08T18:52:25.101Z,12.10
2023-09-08T18:54:51.595Z,13.20
2023-09-08T18:57:18.022Z,13.80
2023-09-08T18:59:44.464Z,13.35
2023-09-08T19:02:10.932Z,12.93
2023-09-08T19:04:37.595Z,14.93
2023-09-08T19:07:04.220Z,15.07
2023-09-08T19:09:30.659Z,15.60
2023-09-08T19:11:57.111Z,21.55
2023-09-08T19:14:27.939Z,16.83
2023-09-08T19:16:55.305Z,17.13
2023-09-08T19:19:22.013Z,15.23
2023-09-08T19:21:48.654Z,14.20
2023-09-08T19:24:16.869Z,14.18
2023-09-08T19:26:43.368Z,13.80
2023-09-08T19:29:09.886Z,16.52
2023-09-08T19:31:36.522Z,15.13
2023-09-08T19:34:03.132Z,17.02
2023-09-08T19:36:29.601Z,19.55
2023-09-08T19:38:56.059Z,19.40
2023-09-08T19:41:25.082Z,18.70
2023-09-08T19:43:51.943Z,26.43
2023-09-08T19:46:18.538Z,21.45
2023-09-08T19:48:45.164Z,19.33
2023-09-08T19:51:11.979Z,17.42
2023-09-08T19:53:38.782Z,21.92
2023-09-08T19:56:05.427Z,23.77
2023-09-08T19:58:31.945Z,25.67
2023-09-08T20:01:10.756Z,22.30
2023-09-08T20:03:37.638Z,18.75
2023-09-08T20:06:05.059Z,16.75
2023-09-08T20:08:32.557Z,16.13
2023-09-08T20:10:59.176Z,17.45
2023-09-08T20:13:25.663Z,15.73
2023-09-08T20:16:18.636Z,15.23
2023-09-08T20:18:45.172Z,17.48
2023-09-08T20:21:11.829Z,17.13
2023-09-08T20:23:38.845Z,16.30
2023-09-08T20:26:05.555Z,18.75
2023-09-08T20:28:33.046Z,18.98
2023-09-08T20:31:13.751Z,17.77
2023-09-08T20:33:42.679Z,17.63
2023-09-08T20:36:09.762Z,17.02
2023-09-08T20:38:36.433Z,17.15
2023-09-08T20:41:02.938Z,18.85
2023-09-08T20:43:29.545Z,20.63
2023-09-08T20:45:57.695Z,21.87
2023-09-08T20:48:24.207Z,18.75
2023-09-08T20:50:59.769Z,17.88
2023-09-08T20:53:26.292Z,18.17
2023-09-08T20:55:52.777Z,17.10
2023-09-08T20:58:19.234Z,17.70
2023-09-08T21:00:45.749Z,16.60
2023-09-08T21:03:12.287Z,16.77
2023-09-08T21:05:38.846Z,18.40
2023-09-08T21:08:05.669Z,20.48
2023-09-08T21:10:32.904Z,30.27
2023-09-08T21:12:59.341Z,27.50
2023-09-08T21:15:25.859Z,20.42
2023-09-08T21:17:52.438Z,18.52
2023-09-08T21:20:18.873Z,18.65
2023-09-08T21:22:45.340Z,25.13
2023-09-08T21:25:11.771Z,20.52
2023-09-08T21:27:38.196Z,19.77
2023-09-08T21:30:05.177Z,15.90
2023-09-08T21:32:31.771Z,15.60
2023-09-08T21:34:58.252Z,14.93
2023-09-08T21:37:24.681Z,14.68
2023-09-08T21:39:51.110Z,15.07
2023-09-08T21:42:17.608Z,15.88
2023-09-08T21:44:44.110Z,15.32
2023-09-08T21:47:10.556Z,15.40
2023-09-08T21:49:37.056Z,15.88
2023-09-08T21:52:03.927Z,15.95
2023-09-08T21:54:30.374Z,16.15
2023-09-08T21:56:56.809Z,16.40
2023-09-08T21:59:23.313Z,18.00
2023-09-08T22:01:49.799Z,19.08
2023-09-08T22:04:16.808Z,20.10
2023-09-08T22:06:43.831Z,24.88
2023-09-08T22:09:10.285Z,26.40
2023-09-08T22:11:36.909Z,29.57
2023-09-08T22:14:03.676Z,28.00
2023-09-08T22:16:30.188Z,27.45
2023-09-08T22:18:57.001Z,26.13
2023-09-08T22:21:23.554Z,25.88
2023-09-08T22:23:51.737Z,25.73
2023-09-08T22:26:19.808Z,26.15
2023-09-08T22:28:50.304Z,25.75
2023-09-08T22:31:17.322Z,26.70
2023-09-08T22:33:44.142Z,27.67
2023-09-08T22:36:10.846Z,26.80
2023-09-08T22:38:37.547Z,28.60
2023-09-08T22:41:03.981Z,27.83
2023-09-08T22:43:30.432Z,27.67
2023-09-08T22:45:56.920Z,27.08
2023-09-08T22:48:23.909Z,26.27
2023-09-08T22:50:50.995Z,26.35
2023-09-08T22:53:18.737Z,29.27
2023-09-08T22:55:45.648Z,29.17
2023-09-08T22:58:14.788Z,29.80
2023-09-08T23:00:41.868Z,29.97
2023-09-08T23:03:09.640Z,29.92
2023-09-08T23:08:03.059Z,29.17
2023-09-08T23:10:29.632Z,29.02
2023-09-08T23:12:56.132Z,29.30
2023-09-08T23:15:23.076Z,31.13
2023-09-08T23:17:49.611Z,31.00
2023-09-08T23:20:16.663Z,30.90
2023-09-08T23:22:44.553Z,31.27
2023-09-08T23:25:11.487Z,28.83
2023-09-08T23:27:38.517Z,29.95
2023-09-08T23:30:06.166Z,30.25
2023-09-08T23:32:32.879Z,29.23
2023-09-08T23:35:00.696Z,30.90
2023-09-08T23:37:27.394Z,28.97
2023-09-08T23:39:53.863Z,31.92
2023-09-08T23:42:20.439Z,31.05
2023-09-08T23:44:46.908Z,34.67
2023-09-08T23:47:13.829Z,34.50
2023-09-08T23:49:40.441Z,35.00
2023-09-08T23:52:06.880Z,34.03
2023-09-08T23:54:33.299Z,34.70
2023-09-08T23:57:00.706Z,33.97
2023-09-08T23:59:27.355Z,33.58
